createdAt,value
2022-11-13T00:01:21.302Z,100109.00
2022-11-13T00:03:48.476Z,100106.00
2022-11-13T00:06:17.277Z,100102.00
2022-11-13T00:08:44.753Z,100107.00
2022-11-13T00:11:18.837Z,100102.00
2022-11-13T00:13:47.706Z,100100.00
2022-11-13T00:16:20.366Z,100102.00
2022-11-13T00:18:48.309Z,100102.00
2022-11-13T00:21:22.518Z,100095.00
2022-11-13T00:23:50.445Z,100095.00
2022-11-13T00:26:23.010Z,100103.00
2022-11-13T00:28:59.885Z,100089.00
2022-11-13T00:31:27.919Z,100091.00
2022-11-13T00:34:19.553Z,100085.00
2022-11-13T00:36:41.954Z,100081.00
2022-11-13T00:39:09.735Z,100082.00
2022-11-13T00:41:36.893Z,100079.00
2022-11-13T00:44:04.994Z,100076.00
2022-11-13T00:46:31.820Z,100079.00
2022-11-13T00:48:58.642Z,100073.00
2022-11-13T00:51:25.415Z,100061.00
2022-11-13T00:53:52.275Z,100064.00
2022-11-13T00:56:19.073Z,100062.00
2022-11-13T00:58:46.252Z,100057.00
2022-11-13T01:01:22.050Z,100059.00
2022-11-13T01:03:49.040Z,100059.00
2022-11-13T01:06:24.622Z,100063.00
2022-11-13T01:08:56.338Z,100051.00
2022-11-13T01:11:27.008Z,100057.00
2022-11-13T01:13:54.821Z,100055.00
2022-11-13T01:16:24.863Z,100060.00
2022-11-13T01:18:55.299Z,100057.00
2022-11-13T01:21:26.514Z,100057.00
2022-11-13T01:23:54.660Z,100054.00
2022-11-13T01:26:28.258Z,100055.00
2022-11-13T01:28:57.088Z,100045.00
2022-11-13T01:31:29.672Z,100042.00
2022-11-13T01:33:57.185Z,100050.00
2022-11-13T01:36:27.748Z,100039.00
2022-11-13T01:38:55.583Z,100042.00
2022-11-13T01:41:29.298Z,100024.00
2022-11-13T01:43:57.680Z,100032.00
2022-11-13T01:46:35.397Z,100021.00
2022-11-13T01:49:23.413Z,100020.00
2022-11-13T01:52:02.765Z,100015.00
2022-11-13T01:54:39.546Z,100015.00
2022-11-13T01:57:07.049Z,100014.00
2022-11-13T01:59:43.435Z,100001.00
2022-11-13T02:02:10.387Z,100007.00
2022-11-13T02:04:37.439Z,100002.00
2022-11-13T02:07:17.824Z,99999.00
2022-11-13T02:09:49.791Z,100002.00
2022-11-13T02:12:27.080Z,100007.00
2022-11-13T02:14:57.391Z,100006.00
2022-11-13T02:17:32.629Z,100000.00
2022-11-13T02:20:06.322Z,100004.00
2022-11-13T02:22:42.701Z,99992.00
2022-11-13T02:25:12.811Z,99989.00
2022-11-13T02:27:48.337Z,99991.00
2022-11-13T02:30:26.770Z,99983.00
2022-11-13T02:32:56.943Z,99973.00
2022-11-13T02:35:41.958Z,99968.00
2022-11-13T02:38:08.715Z,99967.00
2022-11-13T02:40:35.551Z,99959.00
2022-11-13T02:43:02.348Z,99957.00
2022-11-13T02:45:29.146Z,99958.00
2022-11-13T02:47:56.172Z,99950.00
2022-11-13T02:50:22.992Z,99958.00
2022-11-13T02:52:49.850Z,99951.00
2022-11-13T02:55:16.744Z,99949.00
2022-11-13T02:57:43.505Z,99950.00
2022-11-13T03:00:14.036Z,99947.00
2022-11-13T03:02:41.773Z,99945.00
2022-11-13T03:05:12.595Z,99940.00
2022-11-13T03:07:41.910Z,99946.00
2022-11-13T03:10:10.805Z,99942.00
2022-11-13T03:12:38.654Z,99947.00
2022-11-13T03:15:07.876Z,99946.00
2022-11-13T03:17:35.469Z,99945.00
2022-11-13T03:20:02.245Z,99938.00
2022-11-13T03:22:29.044Z,99938.00
2022-11-13T03:24:55.840Z,99939.00
2022-11-13T03:27:22.748Z,99942.00
2022-11-13T03:29:49.713Z,99943.00
2022-11-13T03:32:16.653Z,99938.00
2022-11-13T03:34:43.447Z,99935.00
2022-11-13T03:37:10.258Z,99941.00
2022-11-13T03:39:37.062Z,99938.00
2022-11-13T03:42:03.976Z,99933.00
2022-11-13T03:44:30.869Z,99936.00
2022-11-13T03:46:57.668Z,99938.00
2022-11-13T03:49:24.505Z,99941.00
2022-11-13T03:51:51.303Z,99930.00
2022-11-13T03:54:18.132Z,99932.00
2022-11-13T03:56:44.919Z,99924.00
2022-11-13T03:59:11.701Z,99912.00
2022-11-13T04:01:38.580Z,99915.00
2022-11-13T04:04:05.639Z,99908.00
2022-11-13T04:06:32.472Z,99908.00
2022-11-13T04:08:59.268Z,99911.00
2022-11-13T04:11:26.044Z,99908.00
2022-11-13T04:13:52.842Z,99903.00
2022-11-13T04:16:19.635Z,99896.00
2022-11-13T04:18:46.392Z,99910.00
2022-11-13T04:21:13.205Z,99903.00
2022-11-13T04:23:39.996Z,99900.00
2022-11-13T04:26:06.833Z,99889.00
2022-11-13T04:28:33.638Z,99899.00
2022-11-13T04:31:00.416Z,99896.00
2022-11-13T04:33:27.228Z,99894.00
2022-11-13T04:35:53.991Z,99888.00
2022-11-13T04:38:20.920Z,99883.00
2022-11-13T04:41:11.069Z,99884.00
2022-11-13T04:43:37.860Z,99882.00
2022-11-13T04:46:04.850Z,99875.00
2022-11-13T04:48:31.808Z,99875.00
2022-11-13T04:50:58.745Z,99869.00
2022-11-13T04:53:25.554Z,99864.00
2022-11-13T04:55:55.512Z,99861.00
2022-11-13T04:58:22.345Z,99857.00
2022-11-13T05:00:49.116Z,99858.00
2022-11-13T05:03:15.885Z,99864.00
2022-11-13T05:05:42.770Z,99851.00
2022-11-13T05:08:10.351Z,99847.00
2022-11-13T05:10:37.368Z,99849.00
2022-11-13T05:13:04.315Z,99838.00
2022-11-13T05:15:31.181Z,99840.00
2022-11-13T05:17:58.016Z,99846.00
2022-11-13T05:20:24.813Z,99842.00
2022-11-13T05:22:51.596Z,99844.00
2022-11-13T05:25:18.424Z,99835.00
2022-11-13T05:27:45.225Z,99840.00
2022-11-13T05:30:12.198Z,99842.00
2022-11-13T05:32:38.969Z,99836.00
2022-11-13T05:35:05.944Z,99838.00
2022-11-13T05:37:32.718Z,99839.00
2022-11-13T05:39:59.521Z,99834.00
2022-11-13T05:42:26.356Z,99829.00
2022-11-13T05:44:53.151Z,99828.00
2022-11-13T05:47:19.929Z,99830.00
2022-11-13T05:49:46.734Z,99827.00
2022-11-13T05:52:13.596Z,99826.00
2022-11-13T05:54:40.575Z,99825.00
2022-11-13T05:57:07.427Z,99825.00
2022-11-13T05:59:34.375Z,99813.00
2022-11-13T06:02:01.219Z,99810.00
2022-11-13T06:04:28.020Z,99812.00
2022-11-13T06:06:54.886Z,99808.00
2022-11-13T06:09:21.931Z,99801.00
2022-11-13T06:11:48.961Z,99804.00
2022-11-13T06:14:15.837Z,99794.00
2022-11-13T06:16:42.668Z,99801.00
2022-11-13T06:19:10.867Z,99799.00
2022-11-13T06:21:40.552Z,99791.00
2022-11-13T06:24:10.928Z,99794.00
2022-11-13T06:26:38.766Z,99792.00
2022-11-13T06:29:07.626Z,99785.00
2022-11-13T06:31:37.153Z,99790.00
2022-11-13T06:34:05.668Z,99792.00
2022-11-13T06:36:35.808Z,99792.00
2022-11-13T06:39:05.727Z,99791.00
2022-11-13T06:41:32.730Z,99793.00
2022-11-13T06:44:02.954Z,99788.00
2022-11-13T06:46:31.075Z,99783.00
2022-11-13T06:48:58.389Z,99779.00
2022-11-13T06:51:29.319Z,99774.00
2022-11-13T06:53:57.201Z,99781.00
2022-11-13T06:56:24.544Z,99771.00
2022-11-13T06:58:51.368Z,99775.00
2022-11-13T07:01:22.037Z,99773.00
2022-11-13T07:03:49.443Z,99772.00
2022-11-13T07:06:25.511Z,99773.00
2022-11-13T07:08:53.012Z,99774.00
2022-11-13T07:11:23.179Z,99770.00
2022-11-13T07:13:50.658Z,99772.00
2022-11-13T07:16:19.383Z,99763.00
2022-11-13T07:18:53.625Z,99777.00
2022-11-13T07:21:22.100Z,99769.00
2022-11-13T07:23:50.646Z,99773.00
2022-11-13T07:26:18.585Z,99766.00
2022-11-13T07:28:46.829Z,99762.00
2022-11-13T07:31:15.866Z,99772.00
2022-11-13T07:33:43.677Z,99771.00
2022-11-13T07:36:11.177Z,99779.00
2022-11-13T07:38:37.966Z,99771.00
2022-11-13T07:41:04.925Z,99768.00
2022-11-13T07:43:31.843Z,99756.00
2022-11-13T07:46:00.108Z,99768.00
2022-11-13T07:48:28.329Z,99767.00
2022-11-13T07:50:59.139Z,99757.00
2022-11-13T07:53:25.895Z,99763.00
2022-11-13T07:55:52.666Z,99764.00
2022-11-13T07:58:19.537Z,99760.00
2022-11-13T08:00:46.424Z,99754.00
2022-11-13T08:03:16.964Z,99754.00
2022-11-13T08:05:44.399Z,99756.00
2022-11-13T08:08:15.131Z,99751.00
2022-11-13T08:10:42.507Z,99744.00
2022-11-13T08:13:10.875Z,99745.00
2022-11-13T08:15:38.172Z,99749.00
2022-11-13T08:18:05.998Z,99754.00
2022-11-13T08:20:33.810Z,99742.00
2022-11-13T08:23:03.133Z,99744.00
2022-11-13T08:25:32.226Z,99743.00
2022-11-13T08:28:00.497Z,99735.00
2022-11-13T08:30:28.756Z,99733.00
2022-11-13T08:32:55.649Z,99731.00
2022-11-13T08:35:28.032Z,99715.00
2022-11-13T08:38:07.800Z,99721.00
2022-11-13T08:40:35.764Z,99713.00
2022-11-13T08:43:04.999Z,99717.00
2022-11-13T08:45:32.357Z,99714.00
2022-11-13T08:48:03.905Z,99712.00
2022-11-13T08:50:33.384Z,99707.00
2022-11-13T08:53:01.433Z,99712.00
2022-11-13T08:55:28.711Z,99704.00
2022-11-13T08:58:00.104Z,99705.00
2022-11-13T09:00:29.222Z,99708.00
2022-11-13T09:02:58.129Z,99699.00
2022-11-13T09:05:26.173Z,99691.00
2022-11-13T09:08:01.374Z,99686.00
2022-11-13T09:10:28.734Z,99680.00
2022-11-13T09:13:04.180Z,99673.00
2022-11-13T09:15:32.541Z,99692.00
2022-11-13T09:18:02.714Z,99683.00
2022-11-13T09:20:32.448Z,99683.00
2022-11-13T09:23:06.452Z,99686.00
2022-11-13T09:25:37.916Z,99686.00
2022-11-13T09:28:06.745Z,99682.00
2022-11-13T09:30:34.068Z,99677.00
2022-11-13T09:33:01.934Z,99677.00
2022-11-13T09:35:34.012Z,99671.00
2022-11-13T09:38:15.622Z,99677.00
2022-11-13T09:40:58.310Z,99676.00
2022-11-13T09:43:42.477Z,99669.00
2022-11-13T09:46:35.859Z,99681.00
2022-11-13T09:49:26.780Z,99681.00
2022-11-13T09:52:32.969Z,99677.00
2022-11-13T09:55:00.008Z,99684.00
2022-11-13T09:58:05.214Z,99677.00
2022-11-13T10:00:35.085Z,99671.00
2022-11-13T10:04:01.375Z,99669.00
2022-11-13T10:06:47.934Z,99664.00
2022-11-13T10:09:33.545Z,99671.00
2022-11-13T10:12:07.502Z,99661.00
2022-11-13T10:14:45.980Z,99662.00
2022-11-13T10:17:34.738Z,99661.00
2022-11-13T10:20:11.207Z,99656.00
2022-11-13T10:22:56.760Z,99645.00
2022-11-13T10:25:30.757Z,99645.00
2022-11-13T10:28:11.426Z,99633.00
2022-11-13T10:30:49.375Z,99636.00
2022-11-13T10:33:22.714Z,99618.00
2022-11-13T10:36:02.566Z,99624.00
2022-11-13T10:38:44.416Z,99622.00
2022-11-13T10:41:18.836Z,99623.00
2022-11-13T10:44:02.668Z,99611.00
2022-11-13T10:46:32.937Z,99610.00
2022-11-13T10:49:19.115Z,99614.00
2022-11-13T10:52:00.637Z,99623.00
2022-11-13T10:54:31.602Z,99620.00
2022-11-13T10:57:19.064Z,99606.00
2022-11-13T10:59:46.092Z,99614.00
2022-11-13T11:02:24.441Z,99598.00
2022-11-13T11:05:06.486Z,99607.00
2022-11-13T11:07:41.164Z,99577.00
2022-11-13T11:10:34.474Z,99602.00
2022-11-13T11:13:22.305Z,99583.00
2022-11-13T11:15:59.353Z,99582.00
2022-11-13T11:18:44.632Z,99577.00
2022-11-13T11:21:26.550Z,99563.00
2022-11-13T11:24:24.833Z,99576.00
2022-11-13T11:26:59.215Z,99571.00
2022-11-13T11:34:15.840Z,99560.00
2022-11-13T11:37:14.425Z,99545.00
2022-11-13T11:39:51.293Z,99539.00
2022-11-13T11:42:47.281Z,99536.00
2022-11-13T11:45:48.682Z,99536.00
2022-11-13T11:48:19.675Z,99533.00
2022-11-13T11:51:31.162Z,99530.00
2022-11-13T11:54:54.111Z,99523.00
2022-11-13T11:57:57.851Z,99513.00
2022-11-13T12:00:30.262Z,99518.00
2022-11-13T12:03:27.529Z,99503.00
2022-11-13T12:06:46.215Z,99505.00
2022-11-13T12:09:35.082Z,99487.00
2022-11-13T12:12:51.317Z,99487.00
2022-11-13T12:15:35.012Z,99487.00
2022-11-13T12:18:39.414Z,99487.00
2022-11-13T12:21:24.698Z,99480.00
2022-11-13T12:24:21.394Z,99476.00
2022-11-13T12:27:26.889Z,99467.00
2022-11-13T12:30:27.996Z,99462.00
2022-11-13T12:33:32.203Z,99457.00
2022-11-13T12:36:00.886Z,99448.00
2022-11-13T12:38:37.803Z,99459.00
2022-11-13T12:41:27.961Z,99451.00
2022-11-13T12:44:30.871Z,99455.00
2022-11-13T12:47:02.402Z,99446.00
2022-11-13T12:49:36.966Z,99438.00
2022-11-13T12:52:16.087Z,99437.00
2022-11-13T12:54:43.272Z,99431.00
2022-11-13T12:57:13.132Z,99436.00
2022-11-13T12:59:53.849Z,99433.00
2022-11-13T13:02:40.568Z,99416.00
2022-11-13T13:05:33.141Z,99412.00
2022-11-13T13:08:37.379Z,99404.00
2022-11-13T13:11:38.519Z,99400.00
2022-11-13T13:14:48.956Z,99410.00
2022-11-13T13:17:15.709Z,99400.00
2022-11-13T13:19:42.538Z,99397.00
2022-11-13T13:22:27.490Z,99404.00
2022-11-13T13:25:22.642Z,99401.00
2022-11-13T13:28:07.454Z,99397.00
2022-11-13T13:30:54.371Z,99397.00
2022-11-13T13:34:02.930Z,99400.00
2022-11-13T13:37:10.272Z,99406.00
2022-11-13T13:40:17.130Z,99399.00
2022-11-13T13:43:14.418Z,99389.00
2022-11-13T13:46:30.257Z,99388.00
2022-11-13T13:49:07.087Z,99381.00
2022-11-13T13:51:47.925Z,99383.00
2022-11-13T13:54:26.657Z,99368.00
2022-11-13T13:56:56.855Z,99381.00
2022-11-13T13:59:35.271Z,99384.00
2022-11-13T14:02:13.548Z,99384.00
2022-11-13T14:04:48.454Z,99391.00
2022-11-13T14:07:31.031Z,99380.00
2022-11-13T14:10:18.872Z,99367.00
2022-11-13T14:12:47.186Z,99371.00
2022-11-13T14:15:35.000Z,99363.00
2022-11-13T14:18:28.355Z,99358.00
2022-11-13T14:20:59.638Z,99347.00
2022-11-13T14:23:57.397Z,99347.00
2022-11-13T14:26:24.305Z,99352.00
2022-11-13T14:28:58.518Z,99353.00
2022-11-13T14:31:35.338Z,99350.00
2022-11-13T14:34:11.388Z,99361.00
2022-11-13T14:36:39.527Z,99351.00
2022-11-13T14:39:06.453Z,99365.00
2022-11-13T14:41:50.225Z,99358.00
2022-11-13T14:44:32.481Z,99365.00
2022-11-13T14:47:20.352Z,99372.00
2022-11-13T14:49:47.192Z,99364.00
2022-11-13T14:52:27.174Z,99371.00
2022-11-13T14:55:15.528Z,99356.00
2022-11-13T14:57:50.351Z,99351.00
2022-11-13T15:00:19.851Z,99341.00
2022-11-13T15:02:46.605Z,99347.00
2022-11-13T15:05:13.568Z,99345.00
2022-11-13T15:07:42.519Z,99348.00
2022-11-13T15:10:16.215Z,99354.00
2022-11-13T15:12:43.129Z,99356.00
2022-11-13T15:15:17.946Z,99351.00
2022-11-13T15:17:47.824Z,99358.00
2022-11-13T15:20:28.509Z,99358.00
2022-11-13T15:22:58.492Z,99359.00
2022-11-13T15:25:26.492Z,99353.00
2022-11-13T15:27:53.475Z,99359.00
2022-11-13T15:30:20.549Z,99350.00
2022-11-13T15:32:49.193Z,99354.00
2022-11-13T15:35:18.645Z,99356.00
2022-11-13T15:37:45.725Z,99355.00
2022-11-13T15:40:14.477Z,99345.00
2022-11-13T15:42:43.604Z,99344.00
2022-11-13T15:45:16.398Z,99344.00
2022-11-13T15:47:43.718Z,99334.00
2022-11-13T15:50:16.487Z,99328.00
2022-11-13T15:52:48.981Z,99339.00
2022-11-13T15:55:31.260Z,99340.00
2022-11-13T15:58:03.205Z,99341.00
2022-11-13T16:00:30.075Z,99342.00
2022-11-13T16:02:57.654Z,99340.00
2022-11-13T16:05:26.024Z,99346.00
2022-11-13T16:07:54.765Z,99341.00
2022-11-13T16:10:24.799Z,99344.00
2022-11-13T16:12:52.521Z,99334.00
2022-11-13T16:15:19.935Z,99340.00
2022-11-13T16:17:51.518Z,99349.00
2022-11-13T16:20:19.533Z,99330.00
2022-11-13T16:22:46.422Z,99332.00
2022-11-13T16:25:22.945Z,99331.00
2022-11-13T16:27:51.096Z,99331.00
2022-11-13T16:30:23.152Z,99335.00
2022-11-13T16:32:50.005Z,99342.00
2022-11-13T16:35:19.811Z,99340.00
2022-11-13T16:37:47.109Z,99326.00
2022-11-13T16:40:26.117Z,99326.00
2022-11-13T16:42:54.085Z,99328.00
2022-11-13T16:45:21.892Z,99328.00
2022-11-13T16:47:50.503Z,99331.00
2022-11-13T16:50:27.051Z,99330.00
2022-11-13T16:52:53.877Z,99329.00
2022-11-13T16:55:20.711Z,99333.00
2022-11-13T16:57:47.496Z,99337.00
2022-11-13T17:00:17.794Z,99335.00
2022-11-13T17:02:44.620Z,99318.00
2022-11-13T17:05:16.316Z,99325.00
2022-11-13T17:07:43.432Z,99328.00
2022-11-13T17:10:35.806Z,99322.00
2022-11-13T17:13:02.725Z,99324.00
2022-11-13T17:15:31.351Z,99326.00
2022-11-13T17:17:59.283Z,99310.00
2022-11-13T17:20:26.670Z,99313.00
2022-11-13T17:22:53.527Z,99300.00
2022-11-13T17:25:23.186Z,99304.00
2022-11-13T17:27:49.961Z,99286.00
2022-11-13T17:30:17.242Z,99289.00
2022-11-13T17:32:44.093Z,99299.00
2022-11-13T17:35:13.122Z,99289.00
2022-11-13T17:37:40.291Z,99293.00
2022-11-13T17:40:09.512Z,99282.00
2022-11-13T17:42:44.131Z,99285.00
2022-11-13T17:45:11.034Z,99282.00
2022-11-13T17:47:37.807Z,99275.00
2022-11-13T17:50:07.645Z,99269.00
2022-11-13T17:52:34.833Z,99270.00
2022-11-13T17:55:05.780Z,99273.00
2022-11-13T17:57:33.256Z,99280.00
2022-11-13T18:01:05.614Z,99283.00
2022-11-13T18:03:32.837Z,99295.00
2022-11-13T18:06:08.145Z,99295.00
2022-11-13T18:08:38.494Z,99277.00
2022-11-13T18:11:17.341Z,99280.00
2022-11-13T18:13:45.557Z,99279.00
2022-11-13T18:16:22.874Z,99273.00
2022-11-13T18:18:55.802Z,99276.00
2022-11-13T18:21:26.985Z,99273.00
2022-11-13T18:24:07.231Z,99270.00
2022-11-13T18:26:34.563Z,99269.00
2022-11-13T18:29:02.156Z,99268.00
2022-11-13T18:31:29.607Z,99274.00
2022-11-13T18:33:59.775Z,99271.00
2022-11-13T18:36:26.579Z,99271.00
2022-11-13T18:38:54.073Z,99269.00
2022-11-13T18:41:22.781Z,99278.00
2022-11-13T18:43:52.036Z,99269.00
2022-11-13T18:46:21.999Z,99272.00
2022-11-13T18:48:49.646Z,99267.00
2022-11-13T18:51:20.021Z,99279.00
2022-11-13T18:53:49.313Z,99282.00
2022-11-13T18:56:20.824Z,99275.00
2022-11-13T18:58:50.207Z,99289.00
2022-11-13T19:01:27.274Z,99284.00
2022-11-13T19:04:21.790Z,99277.00
2022-11-13T19:06:46.048Z,99274.00
2022-11-13T19:09:15.630Z,99276.00
2022-11-13T19:11:43.978Z,99271.00
2022-11-13T19:14:15.182Z,99270.00
2022-11-13T19:16:42.081Z,99261.00
2022-11-13T19:19:23.267Z,99253.00
2022-11-13T19:21:51.005Z,99246.00
2022-11-13T19:24:18.071Z,99250.00
2022-11-13T19:26:45.894Z,99251.00
2022-11-13T19:29:13.709Z,99247.00
2022-11-13T19:31:40.744Z,99261.00
2022-11-13T19:34:08.479Z,99256.00
2022-11-13T19:36:36.362Z,99251.00
2022-11-13T19:39:04.849Z,99253.00
2022-11-13T19:41:32.101Z,99249.00
2022-11-13T19:44:00.326Z,99249.00
2022-11-13T19:46:28.622Z,99234.00
2022-11-13T19:48:55.397Z,99242.00
2022-11-13T19:51:25.536Z,99249.00
2022-11-13T19:53:55.296Z,99264.00
2022-11-13T19:56:24.786Z,99259.00
2022-11-13T19:58:52.547Z,99250.00
2022-11-13T20:01:23.849Z,99257.00
2022-11-13T20:04:01.201Z,99256.00
2022-11-13T20:06:31.383Z,99256.00
2022-11-13T20:09:00.060Z,99240.00
2022-11-13T20:11:27.168Z,99250.00
2022-11-13T20:13:56.153Z,99244.00
2022-11-13T20:16:23.740Z,99235.00
2022-11-13T20:18:50.887Z,99235.00
2022-11-13T20:21:30.295Z,99233.00
2022-11-13T20:23:58.856Z,99233.00
2022-11-13T20:26:26.214Z,99232.00
2022-11-13T20:28:53.082Z,99225.00
2022-11-13T20:31:23.190Z,99232.00
2022-11-13T20:33:55.229Z,99238.00
2022-11-13T20:36:25.057Z,99239.00
2022-11-13T20:38:57.675Z,99229.00
2022-11-13T20:41:25.725Z,99230.00
2022-11-13T20:43:55.727Z,99230.00
2022-11-13T20:46:22.916Z,99238.00
2022-11-13T20:48:50.360Z,99241.00
2022-11-13T20:51:23.832Z,99226.00
2022-11-13T20:53:51.338Z,99224.00
2022-11-13T20:56:20.440Z,99226.00
2022-11-13T20:58:47.382Z,99226.00
2022-11-13T21:01:18.229Z,99218.00
2022-11-13T21:03:46.556Z,99206.00
2022-11-13T21:06:19.257Z,99191.00
2022-11-13T21:08:46.570Z,99179.00
2022-11-13T21:11:22.016Z,99181.00
2022-11-13T21:13:49.720Z,99187.00
2022-11-13T21:16:17.114Z,99187.00
2022-11-13T21:18:43.950Z,99187.00
2022-11-13T21:21:16.046Z,99183.00
2022-11-13T21:23:42.894Z,99190.00
2022-11-13T21:26:09.948Z,99186.00
2022-11-13T21:28:37.816Z,99178.00
2022-11-13T21:31:12.589Z,99187.00
2022-11-13T21:33:41.625Z,99187.00
2022-11-13T21:36:21.857Z,99183.00
2022-11-13T21:38:54.192Z,99171.00
2022-11-13T21:41:26.996Z,99169.00
2022-11-13T21:44:07.984Z,99171.00
2022-11-13T21:46:39.376Z,99178.00
2022-11-13T21:49:12.188Z,99168.00
2022-11-13T21:51:41.778Z,99172.00
2022-11-13T21:54:09.057Z,99167.00
2022-11-13T21:56:38.576Z,99173.00
2022-11-13T21:59:06.797Z,99169.00
2022-11-13T22:01:38.448Z,99159.00
2022-11-13T22:04:06.377Z,99154.00
2022-11-13T22:06:39.558Z,99138.00
2022-11-13T22:09:08.050Z,99138.00
2022-11-13T22:11:36.869Z,99139.00
2022-11-13T22:14:05.424Z,99139.00
2022-11-13T22:16:35.308Z,99135.00
2022-11-13T22:19:05.866Z,99139.00
2022-11-13T22:21:35.059Z,99143.00
2022-11-13T22:24:02.233Z,99154.00
2022-11-13T22:26:29.761Z,99145.00
2022-11-13T22:28:58.644Z,99148.00
2022-11-13T22:31:30.826Z,99150.00
2022-11-13T22:33:58.604Z,99158.00
2022-11-13T22:36:30.661Z,99165.00
2022-11-13T22:38:58.489Z,99151.00
2022-11-13T22:41:31.913Z,99159.00
2022-11-13T22:44:11.746Z,99151.00
2022-11-13T22:46:38.568Z,99137.00
2022-11-13T22:49:07.111Z,99131.00
2022-11-13T22:51:38.828Z,99111.00
2022-11-13T22:54:09.293Z,99102.00
2022-11-13T22:56:38.511Z,99099.00
2022-11-13T22:59:09.088Z,99109.00
2022-11-13T23:01:38.814Z,99106.00
2022-11-13T23:04:11.463Z,99108.00
2022-11-13T23:06:38.310Z,99108.00
2022-11-13T23:09:06.543Z,99096.00
2022-11-13T23:11:40.089Z,99097.00
2022-11-13T23:14:12.091Z,99100.00
2022-11-13T23:16:39.528Z,99099.00
2022-11-13T23:19:06.921Z,99094.00
2022-11-13T23:21:34.286Z,99093.00
2022-11-13T23:24:01.756Z,99089.00
2022-11-13T23:26:29.193Z,99093.00
2022-11-13T23:28:56.702Z,99085.00
2022-11-13T23:31:24.062Z,99078.00
2022-11-13T23:33:50.911Z,99083.00
2022-11-13T23:36:18.249Z,99089.00
2022-11-13T23:38:45.714Z,99093.00
2022-11-13T23:41:12.942Z,99084.00
2022-11-13T23:44:08.099Z,99081.00
2022-11-13T23:46:26.790Z,99074.00
2022-11-13T23:48:53.554Z,99067.00
2022-11-13T23:51:20.330Z,99065.00
2022-11-13T23:53:47.113Z,99056.00
2022-11-13T23:56:13.944Z,99053.00
2022-11-13T23:58:40.706Z,99043.00
